createdAt,value
2023-01-17T20:38:47.457Z,94471.09
2023-01-17T20:41:22.723Z,94475.28
2023-01-17T20:43:51.784Z,94471.72
2023-01-17T20:46:23.740Z,94477.84
2023-01-17T20:48:54.552Z,94473.66
2023-01-17T20:51:25.417Z,94474.28
2023-01-17T20:53:56.393Z,94478.75
2023-01-17T20:56:24.439Z,94475.22
2023-01-17T21:06:52.048Z,94470.41
2023-01-17T21:09:21.458Z,94465.91
2023-01-17T21:11:48.436Z,94469.28
2023-01-17T21:14:15.371Z,94474.88
2023-01-17T21:16:42.332Z,94477.16
2023-01-17T21:19:12.252Z,94478.75
2023-01-17T21:21:39.372Z,94485.81
2023-01-17T21:24:06.233Z,94480.75
2023-01-17T21:26:32.967Z,94490.31
2023-01-17T21:29:01.824Z,94488.97
2023-01-17T21:31:29.751Z,94489.50
2023-01-17T21:33:56.427Z,94492.44
2023-01-17T21:36:24.032Z,94489.91
2023-01-17T21:38:52.628Z,94503.00
2023-01-17T21:41:20.202Z,94501.81
2023-01-17T21:43:46.972Z,94502.56
2023-01-17T21:46:13.928Z,94510.25
2023-01-17T21:48:40.936Z,94501.97
2023-01-17T21:51:08.018Z,94504.09
2023-01-17T21:53:35.489Z,94507.31
2023-01-17T21:56:21.384Z,94501.16
2023-01-17T21:58:49.449Z,94505.72
2023-01-17T22:01:19.182Z,94507.63
2023-01-17T22:03:48.245Z,94507.31
2023-01-17T22:06:14.918Z,94516.06
2023-01-17T22:08:41.744Z,94527.88
2023-01-17T22:11:09.645Z,94529.34
2023-01-17T22:13:36.832Z,94528.03
2023-01-17T22:16:04.733Z,94539.16
2023-01-17T22:18:31.721Z,94536.72
2023-01-17T22:20:58.560Z,94538.34
2023-01-17T22:23:25.345Z,94532.91
2023-01-17T22:25:52.048Z,94532.34
2023-01-17T22:28:18.708Z,94537.84
2023-01-17T22:30:45.592Z,94539.31
2023-01-17T22:33:12.386Z,94543.13
2023-01-17T22:35:39.281Z,94543.97
2023-01-17T22:38:06.109Z,94542.28
2023-01-17T22:40:36.231Z,94540.59
2023-01-17T22:43:02.828Z,94540.81
2023-01-17T22:45:29.425Z,94547.25
2023-01-17T22:47:56.231Z,94542.56
2023-01-17T22:50:23.997Z,94523.94
2023-01-17T22:52:50.825Z,94547.94
2023-01-17T22:55:18.357Z,94549.91
2023-01-17T22:57:46.749Z,94551.25
2023-01-17T23:00:16.757Z,94543.63
2023-01-17T23:02:43.571Z,94548.47
2023-01-17T23:05:10.354Z,94549.91
2023-01-17T23:07:43.814Z,94555.50
2023-01-17T23:10:12.089Z,94550.81
2023-01-17T23:12:39.092Z,94551.03
2023-01-17T23:15:24.421Z,94554.63
2023-01-17T23:18:09.538Z,94548.31
2023-01-17T23:20:36.682Z,94554.34
2023-01-17T23:23:03.287Z,94547.59
2023-01-17T23:25:29.927Z,94549.56
2023-01-17T23:28:11.718Z,94548.69
2023-01-17T23:30:39.251Z,94547.00
2023-01-17T23:33:06.775Z,94547.78
2023-01-17T23:35:34.291Z,94540.69
2023-01-17T23:41:28.606Z,94539.56
2023-01-17T23:43:56.044Z,94538.69
2023-01-17T23:46:25.549Z,94538.75
2023-01-17T23:49:19.095Z,94535.25
2023-01-17T23:51:45.765Z,94529.16
2023-01-17T23:54:12.350Z,94533.19
2023-01-17T23:56:38.903Z,94527.13
2023-01-17T23:59:05.886Z,94522.94
